createdAt,value
2022-11-15T00:00:12.730Z,22.63
2022-11-15T00:01:18.784Z,24.98
2022-11-15T00:02:20.614Z,26.83
2022-11-15T00:03:24.462Z,20.33
2022-11-15T00:04:26.140Z,24.05
2022-11-15T00:05:27.752Z,25.08
2022-11-15T00:06:29.655Z,27.75
2022-11-15T00:07:54.717Z,21.35
2022-11-15T00:08:53.182Z,23.90
2022-11-15T00:09:54.742Z,21.98
2022-11-15T00:10:57.828Z,24.33
2022-11-15T00:11:59.558Z,20.95
2022-11-15T00:13:01.231Z,18.33
2022-11-15T00:14:05.422Z,19.58
2022-11-15T00:15:07.884Z,23.02
2022-11-15T00:16:10.127Z,25.63
2022-11-15T00:17:12.096Z,21.20
2022-11-15T00:18:15.489Z,17.35
2022-11-15T00:19:17.329Z,19.98
2022-11-15T00:20:19.021Z,19.88
2022-11-15T00:21:20.766Z,17.85
2022-11-15T00:22:22.621Z,15.95
2022-11-15T00:23:24.275Z,23.10
2022-11-15T00:24:25.885Z,20.02
2022-11-15T00:25:28.324Z,17.35
2022-11-15T00:26:29.978Z,15.10
2022-11-15T00:27:31.549Z,20.10
2022-11-15T00:28:33.317Z,18.35
2022-11-15T00:29:35.195Z,18.90
2022-11-15T00:30:36.967Z,15.38
2022-11-15T00:31:38.731Z,14.80
2022-11-15T00:32:40.578Z,16.98
2022-11-15T00:33:44.465Z,15.38
2022-11-15T00:34:46.055Z,12.32
2022-11-15T00:35:47.653Z,14.13
2022-11-15T00:36:49.426Z,15.73
2022-11-15T00:37:53.210Z,13.52
2022-11-15T00:38:54.869Z,14.90
2022-11-15T00:39:56.557Z,11.43
2022-11-15T00:40:58.169Z,13.60
2022-11-15T00:41:59.749Z,16.08
2022-11-15T00:43:01.521Z,10.38
2022-11-15T00:44:03.345Z,14.65
2022-11-15T00:45:05.419Z,12.75
2022-11-15T00:46:07.101Z,13.68
2022-11-15T00:47:08.831Z,12.63
2022-11-15T00:48:10.994Z,12.05
2022-11-15T00:49:12.596Z,11.88
2022-11-15T00:50:15.487Z,14.40
2022-11-15T00:51:17.348Z,13.90
2022-11-15T00:52:19.266Z,16.52
2022-11-15T00:53:21.315Z,18.13
2022-11-15T00:54:23.038Z,13.77
2022-11-15T00:55:24.623Z,14.27
2022-11-15T00:56:26.269Z,12.55
2022-11-15T00:57:27.967Z,16.17
2022-11-15T00:58:29.597Z,15.50
2022-11-15T00:59:31.294Z,16.75
2022-11-15T01:00:33.012Z,12.60
2022-11-15T01:01:34.893Z,11.18
2022-11-15T01:02:36.659Z,10.52
2022-11-15T01:03:39.779Z,19.27
2022-11-15T01:04:41.337Z,11.32
2022-11-15T01:05:43.163Z,18.00
2022-11-15T01:06:44.894Z,11.57
2022-11-15T01:07:46.670Z,10.00
2022-11-15T01:08:48.365Z,12.43
2022-11-15T01:09:50.071Z,13.77
2022-11-15T01:10:51.952Z,12.90
2022-11-15T01:11:53.644Z,12.85
2022-11-15T01:12:55.503Z,12.25
2022-11-15T01:13:57.242Z,14.05
2022-11-15T01:14:59.272Z,13.30
2022-11-15T01:16:08.336Z,10.38
2022-11-15T01:17:10.133Z,20.40
2022-11-15T01:18:11.808Z,15.23
2022-11-15T01:19:13.538Z,13.35
2022-11-15T01:20:15.308Z,11.77
2022-11-15T01:21:19.744Z,11.68
2022-11-15T01:22:21.536Z,13.02
2022-11-15T01:23:23.179Z,13.02
2022-11-15T01:24:24.872Z,13.35
2022-11-15T01:25:26.515Z,14.65
2022-11-15T01:26:28.401Z,10.10
2022-11-15T01:27:30.066Z,10.93
2022-11-15T01:28:33.730Z,12.35
2022-11-15T01:29:35.432Z,12.23
2022-11-15T01:30:37.452Z,11.25
2022-11-15T01:31:39.262Z,10.02
2022-11-15T01:32:40.967Z,10.35
2022-11-15T01:33:43.083Z,17.73
2022-11-15T01:34:44.646Z,18.25
2022-11-15T01:35:46.236Z,12.48
2022-11-15T01:36:48.080Z,13.40
2022-11-15T01:37:50.190Z,9.70
2022-11-15T01:38:56.419Z,10.80
2022-11-15T01:39:58.331Z,11.90
2022-11-15T01:41:00.119Z,12.25
2022-11-15T01:42:01.838Z,10.20
2022-11-15T01:43:23.683Z,8.38
2022-11-15T01:44:42.482Z,7.32
2022-11-15T01:45:46.223Z,14.18
2022-11-15T01:46:49.162Z,12.77
2022-11-15T01:47:55.292Z,12.73
2022-11-15T01:49:01.660Z,20.60
2022-11-15T01:50:13.109Z,10.85
2022-11-15T01:51:17.956Z,8.95
2022-11-15T01:52:22.142Z,12.95
2022-11-15T01:53:26.027Z,10.13
2022-11-15T01:54:28.280Z,15.00
2022-11-15T01:55:30.029Z,11.32
2022-11-15T01:56:37.361Z,11.13
2022-11-15T01:57:41.142Z,10.73
2022-11-15T01:58:44.400Z,10.20
2022-11-15T01:59:46.820Z,7.35
2022-11-15T02:00:50.847Z,8.68
2022-11-15T02:01:52.978Z,13.98
2022-11-15T02:02:54.596Z,10.30
2022-11-15T02:04:09.022Z,12.20
2022-11-15T02:05:10.921Z,10.25
2022-11-15T02:06:12.615Z,9.18
2022-11-15T02:07:21.163Z,12.07
2022-11-15T02:08:22.807Z,9.10
2022-11-15T02:09:24.821Z,13.57
2022-11-15T02:10:26.532Z,10.00
2022-11-15T02:11:30.995Z,15.55
2022-11-15T02:12:32.814Z,7.85
2022-11-15T02:13:34.722Z,10.00
2022-11-15T02:14:39.475Z,8.07
2022-11-15T02:15:51.106Z,7.63
2022-11-15T02:17:03.171Z,7.40
2022-11-15T02:18:19.951Z,11.25
2022-11-15T02:19:31.065Z,18.98
2022-11-15T02:21:11.766Z,9.63
2022-11-15T02:22:48.992Z,6.85
2022-11-15T02:24:13.536Z,8.48
2022-11-15T02:25:35.375Z,6.75
2022-11-15T02:27:00.193Z,16.02
2022-11-15T02:28:37.430Z,8.57
2022-11-15T02:29:45.317Z,7.18
2022-11-15T02:31:22.279Z,7.90
2022-11-15T02:32:46.646Z,9.30
2022-11-15T02:34:01.181Z,6.93
2022-11-15T02:35:09.337Z,13.52
2022-11-15T02:36:17.524Z,8.05
2022-11-15T02:37:19.205Z,9.27
2022-11-15T02:38:47.351Z,7.68
2022-11-15T02:40:16.865Z,7.75
2022-11-15T02:41:25.262Z,9.75
2022-11-15T02:42:49.005Z,11.93
2022-11-15T02:44:16.166Z,15.57
2022-11-15T02:45:24.184Z,6.78
2022-11-15T02:46:56.478Z,13.30
2022-11-15T02:48:00.759Z,10.82
2022-11-15T02:49:02.573Z,12.18
2022-11-15T02:50:11.397Z,8.07
2022-11-15T02:51:14.246Z,9.43
2022-11-15T02:52:21.358Z,10.13
2022-11-15T02:53:27.072Z,8.02
2022-11-15T02:54:34.240Z,8.93
2022-11-15T02:55:41.537Z,9.95
2022-11-15T02:56:46.677Z,6.47
2022-11-15T02:57:55.884Z,13.55
2022-11-15T02:59:14.817Z,7.88
2022-11-15T03:00:21.536Z,7.78
2022-11-15T03:01:49.258Z,8.48
2022-11-15T03:03:02.779Z,11.35
2022-11-15T03:04:43.617Z,8.75
2022-11-15T03:05:53.065Z,6.15
2022-11-15T03:07:21.237Z,8.82
2022-11-15T03:08:40.847Z,8.05
2022-11-15T03:10:17.918Z,5.00
2022-11-15T03:11:22.189Z,5.00
2022-11-15T03:12:42.489Z,9.93
2022-11-15T03:13:54.801Z,8.57
2022-11-15T03:15:02.250Z,14.50
2022-11-15T03:16:26.030Z,4.72
2022-11-15T03:17:37.298Z,6.55
2022-11-15T03:18:44.074Z,5.90
2022-11-15T03:19:54.095Z,5.63
2022-11-15T03:20:58.790Z,5.82
2022-11-15T03:22:04.018Z,4.65
2022-11-15T03:23:09.434Z,5.03
2022-11-15T03:24:13.406Z,7.07
2022-11-15T03:25:21.944Z,6.00
2022-11-15T03:26:26.074Z,4.97
2022-11-15T03:27:35.685Z,7.40
2022-11-15T03:28:42.942Z,8.27
2022-11-15T03:29:51.137Z,5.30
2022-11-15T03:30:55.918Z,7.50
2022-11-15T03:32:06.655Z,8.38
2022-11-15T03:33:09.393Z,5.97
2022-11-15T03:34:35.350Z,6.07
2022-11-15T03:35:42.042Z,7.05
2022-11-15T03:36:44.889Z,8.63
2022-11-15T03:37:59.503Z,11.77
2022-11-15T03:39:05.247Z,7.72
2022-11-15T03:40:07.758Z,7.05
2022-11-15T03:41:18.850Z,5.70
2022-11-15T03:42:39.705Z,5.15
2022-11-15T03:44:04.049Z,6.10
2022-11-15T03:45:24.796Z,5.13
2022-11-15T03:46:33.071Z,8.20
2022-11-15T03:47:43.487Z,8.20
2022-11-15T03:48:50.572Z,9.73
2022-11-15T03:49:56.887Z,6.53
2022-11-15T03:51:00.389Z,7.68
2022-11-15T03:52:05.130Z,9.57
2022-11-15T03:53:06.932Z,9.73
2022-11-15T03:54:09.261Z,10.60
2022-11-15T03:55:16.060Z,15.57
2022-11-15T03:56:17.660Z,9.60
2022-11-15T03:57:19.280Z,7.13
2022-11-15T03:58:21.325Z,6.90
2022-11-15T03:59:23.567Z,7.13
2022-11-15T04:00:25.586Z,12.10
2022-11-15T04:01:27.681Z,8.85
2022-11-15T04:02:29.857Z,8.68
2022-11-15T04:03:31.974Z,6.20
2022-11-15T04:04:33.670Z,8.13
2022-11-15T04:05:35.268Z,7.78
2022-11-15T04:06:36.916Z,8.63
2022-11-15T04:07:38.642Z,8.98
2022-11-15T04:08:40.655Z,11.20
2022-11-15T04:10:01.192Z,14.10
2022-11-15T04:11:02.727Z,11.27
2022-11-15T04:12:05.040Z,6.65
2022-11-15T04:13:06.783Z,11.93
2022-11-15T04:14:08.371Z,6.60
2022-11-15T04:15:14.302Z,9.50
2022-11-15T04:16:16.039Z,7.25
2022-11-15T04:17:17.620Z,7.80
2022-11-15T04:18:19.292Z,9.48
2022-11-15T04:19:39.534Z,7.85
2022-11-15T04:20:59.772Z,12.45
2022-11-15T04:22:30.537Z,19.73
2022-11-15T04:24:10.852Z,12.23
2022-11-15T04:25:12.514Z,10.57
2022-11-15T04:26:19.171Z,7.70
2022-11-15T04:27:20.869Z,9.98
2022-11-15T04:28:23.334Z,7.90
2022-11-15T04:29:36.857Z,8.35
2022-11-15T04:30:38.700Z,10.40
2022-11-15T04:31:40.303Z,7.05
2022-11-15T04:32:41.961Z,6.25
2022-11-15T04:33:43.615Z,7.63
2022-11-15T04:34:45.245Z,8.60
2022-11-15T04:36:06.883Z,8.18
2022-11-15T04:37:14.422Z,11.85
2022-11-15T04:38:16.096Z,14.52
2022-11-15T04:39:17.920Z,25.70
2022-11-15T04:40:19.603Z,12.13
2022-11-15T04:41:21.262Z,11.55
2022-11-15T04:42:22.975Z,9.90
2022-11-15T04:43:24.663Z,10.90
2022-11-15T04:44:26.427Z,15.57
2022-11-15T04:45:28.074Z,10.82
2022-11-15T04:46:29.750Z,10.15
2022-11-15T04:47:31.309Z,10.88
2022-11-15T04:48:33.085Z,10.77
2022-11-15T04:49:34.712Z,10.98
2022-11-15T04:50:36.531Z,14.50
2022-11-15T04:51:38.217Z,15.52
2022-11-15T04:52:47.299Z,7.63
2022-11-15T04:54:04.217Z,10.60
2022-11-15T04:55:08.310Z,14.30
2022-11-15T04:56:13.098Z,7.90
2022-11-15T04:57:15.380Z,11.93
2022-11-15T04:58:19.064Z,11.85
2022-11-15T04:59:31.022Z,15.27
2022-11-15T05:00:36.481Z,12.63
2022-11-15T05:01:43.609Z,13.02
2022-11-15T05:03:05.015Z,15.48
2022-11-15T05:04:21.619Z,13.07
2022-11-15T05:05:24.908Z,12.55
2022-11-15T05:06:26.561Z,18.33
2022-11-15T05:07:28.226Z,13.52
2022-11-15T05:08:29.862Z,17.02
2022-11-15T05:09:31.489Z,12.32
2022-11-15T05:10:33.134Z,13.88
2022-11-15T05:11:35.065Z,16.13
2022-11-15T05:12:37.019Z,10.80
2022-11-15T05:13:38.640Z,16.08
2022-11-15T05:14:40.316Z,11.07
2022-11-15T05:15:41.904Z,11.20
2022-11-15T05:16:44.084Z,12.73
2022-11-15T05:17:45.629Z,15.23
2022-11-15T05:18:49.133Z,13.40
2022-11-15T05:20:00.702Z,10.02
2022-11-15T05:21:06.663Z,14.40
2022-11-15T05:22:08.272Z,19.42
2022-11-15T05:23:12.455Z,14.10
2022-11-15T05:24:14.297Z,18.17
2022-11-15T05:25:16.030Z,17.13
2022-11-15T05:26:19.120Z,16.48
2022-11-15T05:27:20.733Z,15.38
2022-11-15T05:28:22.236Z,12.60
2022-11-15T05:29:26.764Z,17.65
2022-11-15T05:30:30.954Z,13.48
2022-11-15T05:31:32.926Z,14.55
2022-11-15T05:32:37.283Z,16.08
2022-11-15T05:33:43.997Z,14.45
2022-11-15T05:34:46.514Z,13.32
2022-11-15T05:35:55.832Z,13.20
2022-11-15T05:36:57.999Z,12.52
2022-11-15T05:38:01.962Z,11.63
2022-11-15T05:39:05.648Z,16.75
2022-11-15T05:40:11.601Z,11.00
2022-11-15T05:41:21.143Z,16.13
2022-11-15T05:42:22.902Z,10.60
2022-11-15T05:43:26.981Z,12.98
2022-11-15T05:44:29.743Z,11.80
2022-11-15T05:45:35.826Z,14.15
2022-11-15T05:46:44.219Z,16.08
2022-11-15T05:47:47.068Z,12.07
2022-11-15T05:48:51.163Z,14.27
2022-11-15T05:49:54.977Z,23.50
2022-11-15T05:51:05.011Z,15.85
2022-11-15T05:52:13.090Z,13.93
2022-11-15T05:53:18.761Z,10.90
2022-11-15T05:54:23.764Z,11.15
2022-11-15T05:55:25.313Z,10.10
2022-11-15T05:56:26.972Z,10.25
2022-11-15T05:57:28.513Z,13.68
2022-11-15T05:58:32.803Z,10.43
2022-11-15T05:59:36.548Z,14.25
2022-11-15T06:00:38.321Z,11.25
2022-11-15T06:01:41.281Z,12.93
2022-11-15T06:02:45.845Z,13.02
2022-11-15T06:03:49.764Z,19.58
2022-11-15T06:04:51.396Z,10.32
2022-11-15T06:05:52.951Z,12.40
2022-11-15T06:06:54.859Z,9.90
2022-11-15T06:08:02.432Z,17.55
2022-11-15T06:09:04.323Z,12.13
2022-11-15T06:10:06.535Z,17.13
2022-11-15T06:11:08.767Z,14.55
2022-11-15T06:12:10.388Z,12.43
2022-11-15T06:13:11.997Z,8.70
2022-11-15T06:14:13.753Z,9.60
2022-11-15T06:15:15.451Z,11.45
2022-11-15T06:16:17.059Z,9.00
2022-11-15T06:17:18.685Z,15.90
2022-11-15T06:18:20.283Z,10.90
2022-11-15T06:19:21.953Z,10.38
2022-11-15T06:20:23.794Z,11.15
2022-11-15T06:21:25.328Z,13.18
2022-11-15T06:22:26.890Z,12.38
2022-11-15T06:23:36.236Z,12.68
2022-11-15T06:24:39.037Z,8.90
2022-11-15T06:25:47.108Z,8.30
2022-11-15T06:26:51.437Z,12.63
2022-11-15T06:27:54.449Z,11.13
2022-11-15T06:28:59.845Z,10.27
2022-11-15T06:30:01.442Z,12.50
2022-11-15T06:31:12.094Z,10.60
2022-11-15T06:32:14.298Z,9.38
2022-11-15T06:33:17.430Z,12.32
2022-11-15T06:34:19.040Z,9.02
2022-11-15T06:35:23.522Z,11.50
2022-11-15T06:36:27.547Z,11.18
2022-11-15T06:37:29.070Z,10.57
2022-11-15T06:38:31.310Z,11.38
2022-11-15T06:39:32.844Z,10.23
2022-11-15T06:40:39.552Z,15.75
2022-11-15T06:41:41.100Z,20.33
2022-11-15T06:42:42.704Z,8.70
2022-11-15T06:43:46.827Z,18.88
2022-11-15T06:44:48.420Z,13.88
2022-11-15T06:45:51.315Z,16.63
2022-11-15T06:46:55.454Z,24.55
2022-11-15T06:47:57.702Z,15.38
2022-11-15T06:48:59.243Z,17.42
2022-11-15T06:50:01.420Z,21.33
2022-11-15T06:51:06.571Z,30.13
2022-11-15T06:52:08.517Z,20.67
2022-11-15T06:53:10.378Z,18.50
2022-11-15T06:54:11.931Z,16.45
2022-11-15T06:55:15.514Z,22.55
2022-11-15T06:56:17.148Z,22.98
2022-11-15T06:57:19.004Z,22.15
2022-11-15T06:58:22.286Z,20.80
2022-11-15T06:59:23.960Z,23.08
2022-11-15T07:00:28.629Z,25.20
2022-11-15T07:01:37.318Z,29.15
2022-11-15T07:02:38.925Z,25.95
2022-11-15T07:03:46.193Z,27.50
2022-11-15T07:04:47.769Z,38.38
2022-11-15T07:06:05.546Z,43.97
2022-11-15T07:07:08.467Z,36.08
2022-11-15T07:08:11.292Z,44.22
2022-11-15T07:09:12.989Z,42.13
2022-11-15T07:10:14.726Z,38.45
2022-11-15T07:11:16.388Z,49.15
2022-11-15T07:12:17.962Z,58.83
2022-11-15T07:13:19.581Z,64.57
2022-11-15T07:14:21.181Z,55.25
2022-11-15T07:15:32.884Z,42.85
2022-11-15T07:16:43.378Z,56.20
2022-11-15T07:17:49.937Z,49.13
2022-11-15T07:18:56.139Z,40.92
2022-11-15T07:20:02.611Z,34.78
2022-11-15T07:21:06.423Z,71.75
2022-11-15T07:22:13.600Z,47.92
2022-11-15T07:23:21.444Z,34.40
2022-11-15T07:24:23.322Z,36.10
2022-11-15T07:25:25.135Z,27.55
2022-11-15T07:26:26.688Z,26.38
2022-11-15T07:27:28.268Z,26.05
2022-11-15T07:28:36.480Z,26.17
2022-11-15T07:29:41.439Z,23.00
2022-11-15T07:30:45.414Z,23.23
2022-11-15T07:31:47.340Z,14.18
2022-11-15T07:32:54.084Z,18.02
2022-11-15T07:33:55.737Z,11.70
2022-11-15T07:34:57.463Z,11.82
2022-11-15T07:36:03.108Z,10.10
2022-11-15T07:37:04.643Z,13.20
2022-11-15T07:38:11.905Z,9.90
2022-11-15T07:39:16.128Z,13.68
2022-11-15T07:40:19.820Z,11.77
2022-11-15T07:41:21.543Z,16.52
2022-11-15T07:42:41.774Z,13.68
2022-11-15T07:43:46.515Z,15.57
2022-11-15T07:44:53.992Z,14.70
2022-11-15T07:45:59.041Z,11.20
2022-11-15T07:47:04.101Z,10.30
2022-11-15T07:48:06.268Z,9.52
2022-11-15T07:49:08.125Z,11.73
2022-11-15T07:50:10.461Z,11.70
2022-11-15T07:51:14.578Z,10.60
2022-11-15T07:52:22.921Z,12.88
2022-11-15T07:53:24.580Z,11.57
2022-11-15T07:54:26.364Z,15.90
2022-11-15T07:55:34.757Z,10.95
2022-11-15T07:56:36.687Z,11.77
2022-11-15T07:57:38.317Z,17.25
2022-11-15T07:58:39.887Z,12.27
2022-11-15T07:59:41.552Z,13.82
2022-11-15T08:00:43.178Z,11.32
2022-11-15T08:01:44.797Z,10.95
2022-11-15T08:02:46.723Z,11.18
2022-11-15T08:03:48.440Z,11.30
2022-11-15T08:04:50.174Z,11.82
2022-11-15T08:05:52.728Z,12.25
2022-11-15T08:06:54.381Z,24.10
2022-11-15T08:08:00.043Z,22.70
2022-11-15T08:09:02.003Z,21.17
2022-11-15T08:10:09.745Z,16.73
2022-11-15T08:11:11.624Z,16.25
2022-11-15T08:12:22.395Z,18.02
2022-11-15T08:13:24.183Z,23.15
2022-11-15T08:14:28.271Z,33.63
2022-11-15T08:15:38.555Z,15.77
2022-11-15T08:16:49.233Z,16.10
2022-11-15T08:17:57.796Z,23.60
2022-11-15T08:18:59.892Z,15.60
2022-11-15T08:20:06.650Z,13.60
2022-11-15T08:21:14.242Z,17.20
2022-11-15T08:22:20.073Z,21.53
2022-11-15T08:23:21.817Z,12.95
2022-11-15T08:24:23.540Z,13.80
2022-11-15T08:25:27.315Z,13.27
2022-11-15T08:26:38.995Z,14.20
2022-11-15T08:27:43.535Z,14.93
2022-11-15T08:28:45.377Z,16.93
2022-11-15T08:29:51.265Z,24.33
2022-11-15T08:30:56.894Z,21.57
2022-11-15T08:32:04.275Z,14.60
2022-11-15T08:33:12.272Z,13.93
2022-11-15T08:34:14.488Z,21.27
2022-11-15T08:35:16.743Z,17.17
2022-11-15T08:36:21.266Z,17.73
2022-11-15T08:37:25.935Z,18.77
2022-11-15T08:38:30.379Z,18.40
2022-11-15T08:39:32.670Z,19.87
2022-11-15T08:40:34.602Z,19.00
2022-11-15T08:41:38.614Z,17.00
2022-11-15T08:42:44.871Z,13.77
2022-11-15T08:43:46.868Z,19.17
2022-11-15T08:44:48.598Z,19.63
2022-11-15T08:45:53.260Z,20.00
2022-11-15T08:46:55.605Z,28.40
2022-11-15T08:48:00.096Z,11.20
2022-11-15T08:49:04.463Z,12.97
2022-11-15T08:50:10.065Z,17.07
2022-11-15T08:51:14.735Z,9.90
2022-11-15T08:52:16.714Z,12.93
2022-11-15T08:53:21.677Z,10.43
2022-11-15T08:54:23.276Z,9.00
2022-11-15T08:55:25.230Z,8.70
2022-11-15T08:56:30.787Z,10.00
2022-11-15T08:57:32.503Z,10.20
2022-11-15T08:58:37.264Z,8.20
2022-11-15T08:59:39.054Z,8.10
2022-11-15T09:00:43.148Z,8.23
2022-11-15T09:01:50.337Z,7.50
2022-11-15T09:02:54.397Z,9.73
2022-11-15T09:03:56.965Z,6.87
2022-11-15T09:05:05.862Z,7.53
2022-11-15T09:06:13.799Z,5.50
2022-11-15T09:07:25.982Z,8.47
2022-11-15T09:08:47.032Z,7.23
2022-11-15T09:09:49.465Z,7.57
2022-11-15T09:10:52.207Z,7.53
2022-11-15T09:12:02.478Z,11.03
2022-11-15T09:13:07.289Z,6.60
2022-11-15T09:14:12.861Z,13.67
2022-11-15T09:15:16.321Z,12.53
2022-11-15T09:16:22.508Z,10.67
2022-11-15T09:17:26.899Z,8.03
2022-11-15T09:18:29.190Z,9.10
2022-11-15T09:19:42.589Z,13.53
2022-11-15T09:20:48.772Z,15.70
2022-11-15T09:21:57.225Z,18.77
2022-11-15T09:23:05.225Z,27.60
2022-11-15T09:24:13.986Z,20.23
2022-11-15T09:25:17.361Z,18.10
2022-11-15T09:26:22.043Z,15.23
2022-11-15T09:27:24.273Z,24.80
2022-11-15T09:28:26.497Z,30.30
2022-11-15T09:29:28.475Z,21.13
2022-11-15T09:30:30.778Z,18.30
2022-11-15T09:31:41.537Z,21.07
2022-11-15T09:32:49.330Z,17.93
2022-11-15T09:33:52.804Z,25.10
2022-11-15T09:35:00.339Z,19.27
2022-11-15T09:36:09.004Z,18.10
2022-11-15T09:37:14.833Z,17.30
2022-11-15T09:38:20.334Z,15.77
2022-11-15T09:39:24.980Z,16.13
2022-11-15T09:40:35.203Z,17.40
2022-11-15T09:41:59.686Z,15.50
2022-11-15T09:43:50.545Z,15.50
2022-11-15T09:45:19.620Z,18.00
2022-11-15T09:47:00.378Z,22.30
2022-11-15T09:48:20.586Z,17.03
2022-11-15T09:49:23.343Z,19.87
2022-11-15T09:50:51.811Z,18.20
2022-11-15T09:52:01.605Z,20.23
2022-11-15T09:53:05.923Z,28.07
2022-11-15T09:54:51.628Z,20.20
2022-11-15T09:56:05.432Z,11.70
2022-11-15T09:57:18.234Z,10.63
2022-11-15T09:59:01.108Z,13.70
2022-11-15T10:00:44.224Z,12.30
2022-11-15T10:02:07.384Z,12.63
2022-11-15T10:03:29.030Z,9.83
2022-11-15T10:04:33.518Z,9.93
2022-11-15T10:06:02.810Z,10.83
2022-11-15T10:07:14.594Z,13.83
2022-11-15T10:08:35.645Z,10.90
2022-11-15T10:09:48.264Z,9.60
2022-11-15T10:11:22.818Z,10.20
2022-11-15T10:12:20.070Z,15.90
2022-11-15T10:13:31.766Z,20.30
2022-11-15T10:14:36.169Z,28.53
2022-11-15T10:15:46.487Z,16.97
2022-11-15T10:17:32.244Z,37.50
2022-11-15T10:19:10.225Z,26.03
2022-11-15T10:20:13.019Z,22.30
2022-11-15T10:21:21.995Z,18.63
2022-11-15T10:22:30.030Z,23.33
2022-11-15T10:23:39.290Z,17.60
2022-11-15T10:24:45.794Z,18.00
2022-11-15T10:25:47.904Z,15.93
2022-11-15T10:26:50.223Z,17.63
2022-11-15T10:28:18.323Z,14.77
2022-11-15T10:29:27.114Z,14.90
2022-11-15T10:30:43.671Z,17.60
2022-11-15T10:31:45.642Z,11.80
2022-11-15T10:32:51.575Z,14.90
2022-11-15T10:34:35.287Z,13.30
2022-11-15T10:35:41.301Z,15.77
2022-11-15T10:36:53.323Z,14.90
2022-11-15T10:38:13.255Z,21.60
2022-11-15T10:39:20.555Z,12.23
2022-11-15T10:40:24.669Z,15.40
2022-11-15T10:41:33.044Z,24.70
2022-11-15T10:43:08.902Z,24.90
2022-11-15T10:44:13.466Z,25.03
2022-11-15T10:45:39.554Z,19.93
2022-11-15T10:46:47.734Z,29.33
2022-11-15T10:47:49.536Z,24.90
2022-11-15T10:48:51.203Z,25.63
2022-11-15T10:50:01.605Z,23.50
2022-11-15T10:51:25.039Z,27.50
2022-11-15T10:52:31.298Z,26.20
2022-11-15T10:53:48.435Z,33.30
2022-11-15T10:54:55.272Z,29.73
2022-11-15T10:56:01.397Z,27.63
2022-11-15T10:57:12.048Z,23.50
2022-11-15T10:58:37.210Z,27.93
2022-11-15T10:59:42.693Z,21.10
2022-11-15T11:00:47.246Z,20.47
2022-11-15T11:01:49.642Z,27.50
2022-11-15T11:02:57.070Z,25.30
2022-11-15T11:04:08.593Z,20.97
2022-11-15T11:05:28.829Z,19.10
2022-11-15T11:06:31.189Z,20.90
2022-11-15T11:07:35.797Z,22.83
2022-11-15T11:08:38.307Z,23.47
2022-11-15T11:09:43.672Z,27.23
2022-11-15T11:11:01.934Z,25.13
2022-11-15T11:12:15.805Z,26.07
2022-11-15T11:13:24.575Z,22.33
2022-11-15T11:14:32.060Z,26.17
2022-11-15T11:15:33.805Z,29.27
2022-11-15T11:16:43.069Z,26.33
2022-11-15T11:18:10.369Z,23.83
2022-11-15T11:19:24.030Z,25.13
2022-11-15T11:20:41.986Z,21.23
2022-11-15T11:22:06.823Z,23.33
2022-11-15T11:23:30.091Z,17.80
2022-11-15T11:24:43.819Z,16.20
2022-11-15T11:26:02.715Z,18.03
2022-11-15T11:27:24.623Z,14.23
2022-11-15T11:28:48.124Z,10.40
2022-11-15T11:29:49.791Z,10.33
2022-11-15T11:31:03.390Z,9.57
2022-11-15T11:32:23.015Z,11.30
2022-11-15T11:33:52.126Z,11.23
2022-11-15T11:35:07.710Z,13.30
2022-11-15T11:36:38.287Z,12.70
2022-11-15T11:37:42.584Z,12.60
2022-11-15T11:38:50.572Z,18.17
2022-11-15T11:40:10.425Z,14.07
2022-11-15T11:41:25.232Z,14.83
2022-11-15T11:42:49.787Z,12.60
2022-11-15T11:43:57.785Z,12.57
2022-11-15T11:45:11.902Z,11.37
2022-11-15T11:46:16.212Z,7.60
2022-11-15T11:47:38.153Z,11.10
2022-11-15T11:48:49.380Z,16.33
2022-11-15T11:49:53.809Z,11.57
2022-11-15T11:51:05.704Z,15.73
2022-11-15T11:52:10.160Z,14.60
2022-11-15T11:53:49.666Z,21.23
2022-11-15T11:55:15.425Z,31.53
2022-11-15T11:56:41.729Z,13.53
2022-11-15T11:57:57.531Z,13.13
2022-11-15T11:59:12.013Z,6.47
2022-11-15T12:00:13.900Z,12.20
2022-11-15T12:01:37.040Z,9.03
2022-11-15T12:02:42.731Z,7.77
2022-11-15T12:03:46.830Z,7.43
2022-11-15T12:04:56.073Z,9.10
2022-11-15T12:06:01.367Z,9.20
2022-11-15T12:07:21.272Z,20.90
2022-11-15T12:08:41.624Z,7.77
2022-11-15T12:10:08.284Z,10.17
2022-11-15T12:11:21.386Z,6.90
2022-11-15T12:12:25.775Z,6.70
2022-11-15T12:13:34.418Z,9.37
2022-11-15T12:15:01.236Z,7.70
2022-11-15T12:16:13.656Z,8.60
2022-11-15T12:17:18.659Z,14.87
2022-11-15T12:18:20.427Z,15.47
2022-11-15T12:19:22.185Z,12.63
2022-11-15T12:20:26.490Z,18.53
2022-11-15T12:21:47.863Z,12.50
2022-11-15T12:23:05.235Z,15.40
2022-11-15T12:24:33.996Z,12.60
2022-11-15T12:25:48.080Z,18.23
2022-11-15T12:27:05.218Z,14.33
2022-11-15T12:28:53.159Z,21.23
2022-11-15T12:30:11.607Z,16.40
2022-11-15T12:31:31.459Z,15.00
2022-11-15T12:32:40.038Z,20.57
2022-11-15T12:33:45.487Z,20.50
2022-11-15T12:34:50.203Z,16.10
2022-11-15T12:36:01.214Z,21.90
2022-11-15T12:37:03.135Z,20.53
2022-11-15T12:38:15.687Z,20.37
2022-11-15T12:39:20.670Z,16.60
2022-11-15T12:40:30.082Z,22.20
2022-11-15T12:41:41.067Z,11.43
2022-11-15T12:42:57.369Z,11.67
2022-11-15T12:44:02.448Z,11.77
2022-11-15T12:45:38.501Z,9.00
2022-11-15T12:46:44.536Z,9.10
2022-11-15T12:47:46.260Z,7.77
2022-11-15T12:48:54.421Z,9.03
2022-11-15T12:49:59.169Z,16.00
2022-11-15T12:51:02.003Z,11.83
2022-11-15T12:52:06.785Z,9.30
2022-11-15T12:53:31.401Z,10.50
2022-11-15T12:54:36.249Z,11.20
2022-11-15T12:55:37.888Z,8.03
2022-11-15T12:56:41.241Z,11.37
2022-11-15T12:57:49.741Z,17.80
2022-11-15T12:58:57.746Z,10.83
2022-11-15T13:00:28.256Z,6.77
2022-11-15T13:01:47.463Z,11.93
2022-11-15T13:02:49.688Z,11.13
2022-11-15T13:04:15.695Z,10.33
2022-11-15T13:05:20.436Z,48.30
2022-11-15T13:06:48.423Z,50.43
2022-11-15T13:07:50.284Z,80.33
2022-11-15T13:08:52.272Z,60.07
2022-11-15T13:09:58.515Z,9.40
2022-11-15T13:11:39.998Z,11.80
2022-11-15T13:12:50.137Z,13.60
2022-11-15T13:13:54.747Z,8.47
2022-11-15T13:15:42.281Z,9.57
2022-11-15T13:16:45.062Z,12.33
2022-11-15T13:17:53.354Z,10.57
2022-11-15T13:18:55.806Z,16.23
2022-11-15T13:20:05.456Z,9.60
2022-11-15T13:21:40.404Z,12.10
2022-11-15T13:23:03.200Z,12.20
2022-11-15T13:24:13.440Z,9.23
2022-11-15T13:25:38.167Z,11.50
2022-11-15T13:26:43.171Z,10.47
2022-11-15T13:27:52.493Z,10.97
2022-11-15T13:29:00.173Z,10.10
2022-11-15T13:30:01.941Z,10.93
2022-11-15T13:31:15.217Z,10.77
2022-11-15T13:32:17.922Z,9.90
2022-11-15T13:33:36.348Z,16.33
2022-11-15T13:34:54.060Z,11.03
2022-11-15T13:36:00.114Z,11.83
2022-11-15T13:37:04.886Z,10.37
2022-11-15T13:38:10.010Z,12.73
2022-11-15T13:39:31.466Z,14.83
2022-11-15T13:40:37.642Z,17.43
2022-11-15T13:41:49.276Z,11.97
2022-11-15T13:42:51.810Z,11.77
2022-11-15T13:43:55.237Z,11.87
2022-11-15T13:45:05.686Z,11.13
2022-11-15T13:46:14.427Z,12.77
2022-11-15T13:47:20.988Z,15.43
2022-11-15T13:48:25.126Z,14.47
2022-11-15T13:49:31.594Z,16.63
2022-11-15T13:50:36.685Z,16.37
2022-11-15T13:51:41.240Z,16.20
2022-11-15T13:52:49.971Z,13.83
2022-11-15T13:53:57.675Z,11.23
2022-11-15T13:55:22.464Z,14.53
2022-11-15T13:56:24.820Z,19.03
2022-11-15T13:57:30.922Z,16.77
2022-11-15T13:58:34.264Z,14.67
2022-11-15T13:59:48.997Z,13.57
2022-11-15T14:01:01.725Z,14.47
2022-11-15T14:02:16.164Z,16.63
2022-11-15T14:03:25.954Z,16.97
2022-11-15T14:04:35.265Z,16.87
2022-11-15T14:05:39.668Z,9.87
2022-11-15T14:06:53.012Z,13.83
2022-11-15T14:07:58.908Z,13.63
2022-11-15T14:09:04.833Z,13.60
2022-11-15T14:10:37.091Z,13.77
2022-11-15T14:11:52.933Z,18.63
2022-11-15T14:12:57.582Z,22.43
2022-11-15T14:14:13.309Z,22.07
2022-11-15T14:15:46.103Z,29.17
2022-11-15T14:16:53.597Z,24.70
2022-11-15T14:17:55.405Z,19.50
2022-11-15T14:19:02.006Z,13.83
2022-11-15T14:20:22.858Z,14.20
2022-11-15T14:21:24.576Z,17.77
2022-11-15T14:22:30.603Z,19.00
2022-11-15T14:23:34.696Z,19.00
2022-11-15T14:24:41.651Z,17.27
2022-11-15T14:25:54.656Z,22.00
2022-11-15T14:26:56.728Z,25.90
2022-11-15T14:28:30.259Z,22.53
2022-11-15T14:29:34.508Z,11.87
2022-11-15T14:30:42.171Z,19.00
2022-11-15T14:31:44.048Z,14.83
2022-11-15T14:32:48.741Z,17.90
2022-11-15T14:34:01.511Z,20.60
2022-11-15T14:35:18.371Z,17.50
2022-11-15T14:36:22.172Z,16.73
2022-11-15T14:37:36.130Z,15.03
2022-11-15T14:38:37.724Z,18.70
2022-11-15T14:39:39.309Z,9.13
2022-11-15T14:40:42.089Z,12.07
2022-11-15T14:41:44.619Z,18.40